createdAt,value
2022-08-03T00:03:55.000Z,121.83
2022-08-03T00:06:22.000Z,131.47
2022-08-03T00:08:47.000Z,123.78
2022-08-03T00:11:13.000Z,131.43
2022-08-03T00:13:39.000Z,124.62
2022-08-03T00:16:06.000Z,122.4
2022-08-03T00:18:31.000Z,122.73
2022-08-03T00:20:57.000Z,128.9
2022-08-03T00:23:24.000Z,126.5
2022-08-03T00:25:50.000Z,126.5
2022-08-03T00:25:56.000Z,128.07
2022-08-03T00:28:17.000Z,130.3
2022-08-03T00:30:44.000Z,131.15
2022-08-03T00:33:10.000Z,136.25
2022-08-03T00:35:36.000Z,140.85
2022-08-03T00:38:02.000Z,140.85
2022-08-03T00:38:09.000Z,136.35
2022-08-03T00:40:28.000Z,139.15
2022-08-03T00:42:54.000Z,141.6
2022-08-03T00:45:21.000Z,141.7
2022-08-03T00:47:47.000Z,143.35
2022-08-03T00:50:14.000Z,144.87
2022-08-03T00:52:40.000Z,142.8
2022-08-03T00:55:07.000Z,142.4
2022-08-03T00:57:33.000Z,140.18
2022-08-03T00:59:59.000Z,136.57
2022-08-03T01:02:25.000Z,151
2022-08-03T01:07:19.000Z,150.9
2022-08-03T01:09:44.000Z,157.8
2022-08-03T01:12:10.000Z,164.07
2022-08-03T01:14:37.000Z,167
2022-08-03T01:17:04.000Z,166.53
2022-08-03T01:19:30.000Z,166.8
2022-08-03T01:21:56.000Z,167
2022-08-03T01:24:22.000Z,174.57
2022-08-03T01:26:50.000Z,167.93
2022-08-03T01:29:15.000Z,164.97
2022-08-03T01:31:42.000Z,169.93
2022-08-03T01:34:08.000Z,169.93
2022-08-03T01:34:19.000Z,172.1
2022-08-03T01:36:34.000Z,173.6
2022-08-03T01:39:01.000Z,174.97
2022-08-03T01:41:28.000Z,180.6
2022-08-03T01:43:57.000Z,165.73
2022-08-03T01:46:19.000Z,165.73
2022-08-03T01:46:24.000Z,167.1
2022-08-03T01:48:46.000Z,177.17
2022-08-03T01:51:13.000Z,165.22
2022-08-03T01:53:39.000Z,175.87
2022-08-03T01:58:32.000Z,181.52
2022-08-03T02:00:59.000Z,183.27
2022-08-03T02:03:25.000Z,173.93
2022-08-03T02:05:52.000Z,168.17
2022-08-03T02:08:18.000Z,168.17
2022-08-03T02:08:24.000Z,176.37
2022-08-03T02:10:44.000Z,176.83
2022-08-03T02:13:11.000Z,162.4
2022-08-03T02:15:37.000Z,167.77
2022-08-03T02:18:04.000Z,165.68
2022-08-03T02:20:30.000Z,170.35
2022-08-03T02:22:57.000Z,167.75
2022-08-03T02:25:24.000Z,149.2
2022-08-03T02:27:49.000Z,166.18
2022-08-03T02:30:16.000Z,159.97
2022-08-03T02:32:43.000Z,161.28
2022-08-03T02:35:09.000Z,159.07
2022-08-03T02:37:36.000Z,165.92
2022-08-03T02:40:02.000Z,165.92
2022-08-03T02:40:08.000Z,155.03
2022-08-03T02:42:27.000Z,156.83
2022-08-03T02:44:53.000Z,159
2022-08-03T02:47:19.000Z,166.32
2022-08-03T02:49:45.000Z,160.03
2022-08-03T02:52:11.000Z,160.03
2022-08-03T02:52:20.000Z,169.77
2022-08-03T02:54:37.000Z,159.27
2022-08-03T02:57:04.000Z,164.73
2022-08-03T02:59:30.000Z,157.52
2022-08-03T03:01:56.000Z,155.78
2022-08-03T03:04:21.000Z,158.63
2022-08-03T03:06:48.000Z,158.63
2022-08-03T03:06:56.000Z,162.87
2022-08-03T03:09:15.000Z,165.55
2022-08-03T03:11:41.000Z,166.15
2022-08-03T03:14:13.000Z,161.12
2022-08-03T03:16:33.000Z,161.12
2022-08-03T03:16:41.000Z,155.72
2022-08-03T03:18:59.000Z,155.72
2022-08-03T03:19:07.000Z,162.5
2022-08-03T03:21:26.000Z,154.4
2022-08-03T03:23:51.000Z,156.95
2022-08-03T03:28:42.000Z,163.83
2022-08-03T03:31:09.000Z,150.55
2022-08-03T03:33:35.000Z,165.7
2022-08-03T03:36:00.000Z,158.3
2022-08-03T03:38:27.000Z,158.33
2022-08-03T03:40:52.000Z,150.9
2022-08-03T03:43:18.000Z,147.13
2022-08-03T03:45:46.000Z,142.13
2022-08-03T03:48:12.000Z,147.85
2022-08-03T03:50:38.000Z,144.35
2022-08-03T03:53:04.000Z,147.1
2022-08-03T03:55:30.000Z,147.1
2022-08-03T03:57:56.000Z,147.1
2022-08-03T03:58:02.000Z,136.1
2022-08-03T03:58:12.000Z,137.55
2022-08-03T04:00:28.000Z,146.62
2022-08-03T04:02:49.000Z,139.8
2022-08-03T04:05:17.000Z,139.55
2022-08-03T04:07:43.000Z,146.02
2022-08-03T04:10:09.000Z,139.8
2022-08-03T04:12:34.000Z,134
2022-08-03T04:15:01.000Z,134
2022-08-03T04:15:11.000Z,133.75
2022-08-03T04:17:29.000Z,130.97
2022-08-03T04:19:54.000Z,129.3
2022-08-03T04:22:20.000Z,133.3
2022-08-03T04:24:46.000Z,129.72
2022-08-03T04:27:12.000Z,129.13
2022-08-03T04:29:37.000Z,129.47
2022-08-03T04:32:03.000Z,129.47
2022-08-03T04:32:12.000Z,127.65
2022-08-03T04:34:29.000Z,126.6
2022-08-03T04:36:55.000Z,121.02
2022-08-03T04:39:22.000Z,124.18
2022-08-03T04:41:47.000Z,141.57
2022-08-03T04:44:13.000Z,141.57
2022-08-03T04:44:20.000Z,135.1
2022-08-03T04:46:37.000Z,135.1
2022-08-03T04:49:03.000Z,135.1
2022-08-03T04:49:12.000Z,134.25
2022-08-03T04:49:19.000Z,144.43
2022-08-03T04:51:29.000Z,130.33
2022-08-03T04:53:56.000Z,133.97
2022-08-03T04:56:21.000Z,143.65
2022-08-03T04:58:47.000Z,163.23
2022-08-03T05:01:13.000Z,144.65
2022-08-03T05:03:38.000Z,140.77
2022-08-03T05:06:05.000Z,166.18
2022-08-03T05:08:31.000Z,166.18
2022-08-03T05:10:59.000Z,166.18
2022-08-03T05:11:06.000Z,159.03
2022-08-03T05:11:12.000Z,142.13
2022-08-03T05:13:26.000Z,150.53
2022-08-03T05:15:53.000Z,166.27
2022-08-03T05:18:18.000Z,162.22
2022-08-03T05:20:44.000Z,159.72
2022-08-03T05:23:10.000Z,153.5
2022-08-03T05:25:36.000Z,154.23
2022-08-03T05:28:03.000Z,154.23
2022-08-03T05:28:11.000Z,155.27
2022-08-03T05:30:29.000Z,152.6
2022-08-03T05:32:55.000Z,152.6
2022-08-03T05:33:01.000Z,148.7
2022-08-03T05:35:22.000Z,151.4
2022-08-03T05:37:49.000Z,151.4
2022-08-03T05:37:59.000Z,145.75
2022-08-03T05:40:19.000Z,145.75
2022-08-03T05:40:27.000Z,141.92
2022-08-03T05:42:43.000Z,139.57
2022-08-03T05:45:09.000Z,138.32
2022-08-03T05:47:36.000Z,141.7
2022-08-03T05:50:02.000Z,148.4
2022-08-03T05:52:29.000Z,140.47
2022-08-03T05:54:55.000Z,142.55
2022-08-03T05:57:22.000Z,145.68
2022-08-03T05:59:47.000Z,132.7
2022-08-03T06:02:16.000Z,132.7
2022-08-03T06:02:22.000Z,138.88
2022-08-03T06:04:41.000Z,135.28
2022-08-03T06:07:07.000Z,140.73
2022-08-03T06:09:34.000Z,139.2
2022-08-03T06:12:02.000Z,139.2
2022-08-03T06:14:27.000Z,139.2
2022-08-03T06:14:36.000Z,133.25
2022-08-03T06:14:44.000Z,135.27
2022-08-03T06:16:54.000Z,126.25
2022-08-03T06:19:22.000Z,129.3
2022-08-03T06:21:46.000Z,129.82
2022-08-03T06:24:13.000Z,116.67
2022-08-03T06:26:46.000Z,116.67
2022-08-03T06:26:55.000Z,113.43
2022-08-03T06:29:05.000Z,117.25
2022-08-03T06:31:32.000Z,114.2
2022-08-03T06:33:58.000Z,99.85
2022-08-03T06:36:25.000Z,99.85
2022-08-03T06:36:33.000Z,93.07
2022-08-03T06:38:52.000Z,104.8
2022-08-03T07:12:54.000Z,69.97
2022-08-03T07:13:02.000Z,65.83
2022-08-03T07:14:27.000Z,73.5
2022-08-03T07:16:17.000Z,73.28
2022-08-03T07:18:44.000Z,82.57
2022-08-03T07:21:10.000Z,66.5
2022-08-03T07:23:35.000Z,71.33
2022-08-03T07:26:01.000Z,70.12
2022-08-03T07:28:28.000Z,70.7
2022-08-03T07:30:54.000Z,74.6
2022-08-03T07:33:20.000Z,68.22
2022-08-03T07:35:46.000Z,73.72
2022-08-03T07:38:13.000Z,70.25
2022-08-03T07:40:38.000Z,69.7
2022-08-03T07:43:05.000Z,69.7
2022-08-03T07:43:11.000Z,73.87
2022-08-03T07:45:31.000Z,75.45
2022-08-03T07:47:58.000Z,76.42
2022-08-03T07:50:29.000Z,73.05
2022-08-03T07:52:49.000Z,73.85
2022-08-03T07:57:44.000Z,69.22
2022-08-03T08:00:12.000Z,69.67
2022-08-03T08:02:35.000Z,68.83
2022-08-03T08:05:02.000Z,71.12
2022-08-03T08:07:28.000Z,71.22
2022-08-03T08:09:54.000Z,73.67
2022-08-03T08:12:21.000Z,70.7
2022-08-03T08:14:47.000Z,70.6
2022-08-03T08:17:14.000Z,69.12
2022-08-03T08:19:39.000Z,67.05
2022-08-03T08:22:06.000Z,67.05
2022-08-03T08:22:12.000Z,73.83
2022-08-03T08:24:32.000Z,73.83
2022-08-03T08:24:40.000Z,69.4
2022-08-03T08:26:57.000Z,58.73
2022-08-03T08:29:25.000Z,70.1
2022-08-03T08:31:49.000Z,66.25
2022-08-03T08:34:14.000Z,65.25
2022-08-03T08:36:41.000Z,59.35
2022-08-03T08:39:08.000Z,58.7
2022-08-03T08:41:33.000Z,58.7
2022-08-03T08:43:59.000Z,58.7
2022-08-03T08:44:05.000Z,65.5
2022-08-03T08:44:10.000Z,63.02
2022-08-03T08:46:25.000Z,62.73
2022-08-03T08:48:52.000Z,61.5
2022-08-03T08:51:17.000Z,66.6
2022-08-03T08:53:43.000Z,64.9
2022-08-03T08:56:10.000Z,65.7
2022-08-03T08:58:37.000Z,65.7
2022-08-03T08:58:43.000Z,57.35
2022-08-03T09:01:02.000Z,62.9
2022-08-03T09:03:28.000Z,65.3
2022-08-03T09:05:54.000Z,62.4
2022-08-03T09:08:19.000Z,67.43
2022-08-03T09:13:11.000Z,67.37
2022-08-03T09:15:36.000Z,62.1
2022-08-03T09:18:03.000Z,62.1
2022-08-03T09:18:09.000Z,58.63
2022-08-03T09:20:28.000Z,57.25
2022-08-03T09:22:55.000Z,59.88
2022-08-03T09:25:21.000Z,59.88
2022-08-03T09:25:30.000Z,60.75
2022-08-03T09:27:47.000Z,60.73
2022-08-03T09:30:15.000Z,64.32
2022-08-03T09:32:40.000Z,64.32
2022-08-03T09:32:46.000Z,61.13
2022-08-03T09:35:05.000Z,57.47
2022-08-03T09:37:32.000Z,56.45
2022-08-03T09:39:58.000Z,56.45
2022-08-03T09:40:07.000Z,59.33
2022-08-03T09:42:23.000Z,55.78
2022-08-03T09:44:49.000Z,60.4
2022-08-03T09:47:15.000Z,57.53
2022-08-03T09:49:40.000Z,57.53
2022-08-03T09:49:47.000Z,58
2022-08-03T09:52:07.000Z,51.2
2022-08-03T09:54:33.000Z,51.2
2022-08-03T09:54:42.000Z,54.65
2022-08-03T09:56:59.000Z,54.88
2022-08-03T09:59:24.000Z,56.83
2022-08-03T10:01:51.000Z,55.87
2022-08-03T10:04:34.000Z,56.7
2022-08-03T10:06:41.000Z,56.7
2022-08-03T10:06:47.000Z,56.28
2022-08-03T10:09:06.000Z,54.57
2022-08-03T10:11:33.000Z,60.7
2022-08-03T10:13:58.000Z,60.7
2022-08-03T10:14:06.000Z,53.75
2022-08-03T10:16:24.000Z,48.38
2022-08-03T10:18:49.000Z,52.7
2022-08-03T10:21:15.000Z,51.7
2022-08-03T10:23:41.000Z,50.43
2022-08-03T10:26:08.000Z,51.4
2022-08-03T10:28:33.000Z,52.73
2022-08-03T10:30:58.000Z,52.73
2022-08-03T10:31:04.000Z,48.08
2022-08-03T10:33:25.000Z,53.3
2022-08-03T10:35:51.000Z,53.3
2022-08-03T10:35:57.000Z,50.4
2022-08-03T10:38:17.000Z,50.77
2022-08-03T10:40:43.000Z,52.78
2022-08-03T10:43:09.000Z,52.78
2022-08-03T10:43:16.000Z,51.63
2022-08-03T10:45:34.000Z,46.73
2022-08-03T10:48:00.000Z,48.2
2022-08-03T10:50:26.000Z,51.28
2022-08-03T10:55:17.000Z,50.85
2022-08-03T10:57:43.000Z,49.87
2022-08-03T11:00:14.000Z,50.33
2022-08-03T11:02:35.000Z,53.83
2022-08-03T11:07:27.000Z,51.1
2022-08-03T11:07:33.000Z,50.38
2022-08-03T11:09:53.000Z,46.83
2022-08-03T11:12:18.000Z,45
2022-08-03T11:14:44.000Z,45
2022-08-03T11:14:51.000Z,49.77
2022-08-03T11:17:11.000Z,48.33
2022-08-03T11:19:37.000Z,48.33
2022-08-03T11:22:02.000Z,48.33
2022-08-03T11:22:09.000Z,43.87
2022-08-03T11:22:17.000Z,47.77
2022-08-03T11:24:27.000Z,46.98
2022-08-03T11:26:53.000Z,48.23
2022-08-03T11:29:19.000Z,41.75
2022-08-03T11:31:45.000Z,46.47
2022-08-03T11:34:10.000Z,46.47
2022-08-03T11:34:17.000Z,49.45
2022-08-03T11:36:36.000Z,47.93
2022-08-03T11:39:08.000Z,43.78
2022-08-03T11:41:28.000Z,44.7
2022-08-03T11:43:53.000Z,44.7
2022-08-03T11:44:01.000Z,47.73
2022-08-03T11:46:19.000Z,45.98
2022-08-03T11:48:45.000Z,45.98
2022-08-03T11:48:50.000Z,48.6
2022-08-03T11:51:11.000Z,42.1
2022-08-03T11:53:36.000Z,49.18
2022-08-03T11:56:02.000Z,44.77
2022-08-03T11:58:28.000Z,44.77
2022-08-03T12:00:54.000Z,44.77
2022-08-03T12:01:00.000Z,48.23
2022-08-03T12:01:06.000Z,43.5
2022-08-03T12:03:20.000Z,46.13
2022-08-03T12:05:45.000Z,49.35
2022-08-03T12:08:12.000Z,49.35
2022-08-03T12:08:18.000Z,48.92
2022-08-03T12:10:37.000Z,53.6
2022-08-03T12:13:04.000Z,47.45
2022-08-03T12:15:30.000Z,47.45
2022-08-03T12:15:37.000Z,49.75
2022-08-03T12:17:55.000Z,48.25
2022-08-03T12:20:21.000Z,42
2022-08-03T12:22:47.000Z,42
2022-08-03T12:22:53.000Z,52.87
2022-08-03T12:25:12.000Z,48.5
2022-08-03T12:27:38.000Z,48.5
2022-08-03T12:27:46.000Z,49.33
2022-08-03T12:30:05.000Z,49.77
2022-08-03T12:32:29.000Z,49.4
2022-08-03T12:34:56.000Z,53.52
2022-08-03T12:37:21.000Z,50.17
2022-08-03T12:39:46.000Z,47.85
2022-08-03T12:42:13.000Z,47.85
2022-08-03T12:42:21.000Z,53.8
2022-08-03T12:44:38.000Z,49.33
2022-08-03T12:47:05.000Z,51.45
2022-08-03T12:49:30.000Z,56.13
2022-08-03T12:51:56.000Z,57.53
2022-08-03T12:54:21.000Z,57.53
2022-08-03T12:54:30.000Z,54.7
2022-08-03T12:56:48.000Z,57.17
2022-08-03T12:59:14.000Z,57.85
2022-08-03T13:01:40.000Z,67.55
2022-08-03T13:04:06.000Z,67.55
2022-08-03T13:06:31.000Z,67.55
2022-08-03T13:06:37.000Z,63.17
2022-08-03T13:06:42.000Z,63.75
2022-08-03T13:08:58.000Z,63.75
2022-08-03T13:09:04.000Z,59.6
2022-08-03T13:11:23.000Z,60.2
2022-08-03T13:13:50.000Z,60.2
2022-08-03T13:13:56.000Z,63.73
2022-08-03T13:16:16.000Z,69.4
2022-08-03T13:18:43.000Z,67.3
2022-08-03T13:21:08.000Z,67.12
2022-08-03T13:23:33.000Z,69.7
2022-08-03T13:25:58.000Z,69.7
2022-08-03T13:28:24.000Z,67.67
2022-08-03T13:30:51.000Z,66.42
2022-08-03T13:33:16.000Z,71.8
2022-08-03T13:35:43.000Z,73.6
2022-08-03T13:38:09.000Z,73.9
2022-08-03T13:40:35.000Z,71.35
2022-08-03T13:43:01.000Z,71.35
2022-08-03T13:43:07.000Z,66.17
2022-08-03T13:45:27.000Z,62.53
2022-08-03T13:47:52.000Z,65.17
2022-08-03T13:50:18.000Z,68
2022-08-03T13:52:45.000Z,68.35
2022-08-03T13:55:12.000Z,67.12
2022-08-03T13:57:37.000Z,68.93
2022-08-03T14:02:28.000Z,71.82
2022-08-03T14:04:55.000Z,67.85
2022-08-03T14:07:21.000Z,68.6
2022-08-03T14:09:48.000Z,75.77
2022-08-03T14:12:12.000Z,74.25
2022-08-03T14:14:39.000Z,67.58
2022-08-03T14:17:05.000Z,77.05
2022-08-03T14:19:33.000Z,76.4
2022-08-03T14:21:59.000Z,76.4
2022-08-03T14:24:26.000Z,76.4
2022-08-03T14:24:33.000Z,84.1
2022-08-03T14:24:39.000Z,78.92
2022-08-03T14:26:51.000Z,73.87
2022-08-03T14:29:17.000Z,73.87
2022-08-03T14:29:24.000Z,76.65
2022-08-03T14:31:46.000Z,76.13
2022-08-03T14:34:14.000Z,76.13
2022-08-03T14:34:20.000Z,82.2
2022-08-03T14:36:39.000Z,77.37
2022-08-03T14:39:06.000Z,82.25
2022-08-03T14:41:31.000Z,77.42
2022-08-03T14:43:57.000Z,74.37
2022-08-03T14:46:22.000Z,74.37
2022-08-03T14:46:29.000Z,77.42
2022-08-03T14:48:48.000Z,76.47
2022-08-03T14:51:14.000Z,76.47
2022-08-03T14:51:22.000Z,76.13
2022-08-03T14:53:41.000Z,75.8
2022-08-03T14:56:07.000Z,71.4
2022-08-03T14:58:32.000Z,77.58
2022-08-03T15:00:58.000Z,74.67
2022-08-03T15:03:24.000Z,74.67
2022-08-03T15:03:31.000Z,73.78
2022-08-03T15:05:50.000Z,78.9
2022-08-03T15:08:16.000Z,67.4
2022-08-03T15:10:42.000Z,75.5
2022-08-03T15:13:07.000Z,77.17
2022-08-03T15:15:34.000Z,81.9
2022-08-03T15:17:59.000Z,74.5
2022-08-03T15:20:25.000Z,71.9
2022-08-03T15:22:50.000Z,71.9
2022-08-03T15:22:58.000Z,78.33
2022-08-03T15:25:16.000Z,75.5
2022-08-03T15:27:42.000Z,75.5
2022-08-03T15:30:09.000Z,75.5
2022-08-03T15:30:16.000Z,77.63
2022-08-03T15:30:22.000Z,79.82
2022-08-03T15:32:32.000Z,77.93
2022-08-03T15:34:59.000Z,81.22
2022-08-03T15:37:25.000Z,71.87
2022-08-03T15:39:51.000Z,75.4
2022-08-03T15:42:17.000Z,75.4
2022-08-03T15:42:27.000Z,73.05
2022-08-03T15:44:40.000Z,71.37
2022-08-03T15:47:14.000Z,75.57
2022-08-03T15:49:34.000Z,69.55
2022-08-03T15:54:26.000Z,77.62
2022-08-03T15:56:52.000Z,72.62
2022-08-03T15:59:17.000Z,69.17
2022-08-03T16:01:42.000Z,74.07
2022-08-03T16:04:08.000Z,65.7
2022-08-03T16:06:33.000Z,68.4
2022-08-03T16:08:59.000Z,73.17
2022-08-03T16:11:26.000Z,69
2022-08-03T16:13:51.000Z,70.33
2022-08-03T16:16:17.000Z,70.33
2022-08-03T16:16:24.000Z,73.5
2022-08-03T16:18:44.000Z,73.4
2022-08-03T16:21:08.000Z,74.07
2022-08-03T16:23:34.000Z,74.07
2022-08-03T16:26:02.000Z,74.07
2022-08-03T16:26:12.000Z,78.45
2022-08-03T16:26:19.000Z,77.12
2022-08-03T16:28:27.000Z,77.12
2022-08-03T16:28:33.000Z,80.87
2022-08-03T16:30:54.000Z,77.3
2022-08-03T16:33:19.000Z,73.7
2022-08-03T16:35:45.000Z,79.93
2022-08-03T16:38:12.000Z,77.67
2022-08-03T16:40:39.000Z,77.67
2022-08-03T16:40:44.000Z,76.97
2022-08-03T16:43:07.000Z,74.8
2022-08-03T16:45:32.000Z,74.8
2022-08-03T16:45:41.000Z,77.4
2022-08-03T16:47:58.000Z,75.25
2022-08-03T16:50:37.000Z,75.25
2022-08-03T16:50:44.000Z,76.1
2022-08-03T16:52:50.000Z,73.13
2022-08-03T16:55:16.000Z,74.85
2022-08-03T16:57:46.000Z,74.85
2022-08-03T17:00:26.000Z,73.25
2022-08-03T17:00:26.000Z,73.25
2022-08-03T17:00:39.000Z,73.4
2022-08-03T17:02:35.000Z,75.42
2022-08-03T17:05:02.000Z,74.63
2022-08-03T17:09:58.000Z,76.67
2022-08-03T17:12:21.000Z,78.15
2022-08-03T17:14:47.000Z,78.15
2022-08-03T17:14:54.000Z,79.53
2022-08-03T17:17:13.000Z,82.2
2022-08-03T17:19:41.000Z,88.35
2022-08-03T17:22:05.000Z,88.35
2022-08-03T17:22:12.000Z,79.12
2022-08-03T17:24:31.000Z,79.12
2022-08-03T17:26:57.000Z,79.12
2022-08-03T17:27:04.000Z,79.55
2022-08-03T17:29:23.000Z,79.55
2022-08-03T17:31:50.000Z,79.55
2022-08-03T17:31:58.000Z,82.88
2022-08-03T17:34:16.000Z,82.88
2022-08-03T17:36:55.000Z,78.3
2022-08-03T17:36:55.000Z,78.3
2022-08-03T17:37:08.000Z,78.45
2022-08-03T17:37:25.000Z,73.4
2022-08-03T17:37:25.000Z,73.4
2022-08-03T17:39:10.000Z,79.9
2022-08-03T17:41:36.000Z,80.2
2022-08-03T17:44:02.000Z,77.87
2022-08-03T17:46:29.000Z,76.62
2022-08-03T17:48:55.000Z,75.03
2022-08-03T17:51:22.000Z,75.03
2022-08-03T17:51:31.000Z,78.62
2022-08-03T17:53:47.000Z,78.62
2022-08-03T17:53:53.000Z,76.37
2022-08-03T17:56:28.000Z,75.32
2022-08-03T17:58:40.000Z,75.32
2022-08-03T18:01:06.000Z,75.32
2022-08-03T18:01:06.000Z,70.55
2022-08-03T18:01:06.000Z,75.32
2022-08-03T18:03:32.000Z,68.85
2022-08-03T18:05:59.000Z,64.42
2022-08-03T18:08:26.000Z,66.62
2022-08-03T18:10:52.000Z,70.22
2022-08-03T18:13:28.000Z,70.22
2022-08-03T18:15:45.000Z,70.22
2022-08-03T18:15:53.000Z,68.17
2022-08-03T18:16:00.000Z,67.7
2022-08-03T18:18:12.000Z,70.4
2022-08-03T18:20:36.000Z,70.4
2022-08-03T18:23:03.000Z,70.4
2022-08-03T18:23:15.000Z,68.87
2022-08-03T18:23:29.000Z,70.6
2022-08-03T18:25:30.000Z,78.57
2022-08-03T18:27:55.000Z,72.27
2022-08-03T18:30:24.000Z,66.6
2022-08-03T18:32:48.000Z,65.85
2022-08-03T18:35:14.000Z,65.85
2022-08-03T18:37:40.000Z,65.85
2022-08-03T18:37:50.000Z,63.1
2022-08-03T18:38:01.000Z,63.9
2022-08-03T18:40:09.000Z,64.92
2022-08-03T18:42:34.000Z,67
2022-08-03T18:44:59.000Z,62.98
2022-08-03T18:47:27.000Z,63.15
2022-08-03T18:49:53.000Z,62.2
2022-08-03T18:52:18.000Z,67.75
2022-08-03T18:54:45.000Z,67.75
2022-08-03T18:57:13.000Z,67.75
2022-08-03T18:57:33.000Z,62.8
2022-08-03T18:57:33.000Z,62.8
2022-08-03T18:59:38.000Z,74.05
2022-08-03T19:02:04.000Z,65.7
2022-08-03T19:04:31.000Z,65.97
2022-08-03T19:06:56.000Z,65.97
2022-08-03T19:07:03.000Z,66.13
2022-08-03T19:09:23.000Z,68.12
2022-08-03T19:11:49.000Z,68.12
2022-08-03T19:14:16.000Z,68.12
2022-08-03T19:14:25.000Z,69.67
2022-08-03T19:14:36.000Z,59.53
2022-08-03T19:16:51.000Z,67.27
2022-08-03T19:19:08.000Z,67.27
2022-08-03T19:19:16.000Z,61
2022-08-03T19:21:33.000Z,64.92
2022-08-03T19:23:59.000Z,62.88
2022-08-03T19:26:26.000Z,62.88
2022-08-03T19:28:52.000Z,62.88
2022-08-03T19:29:01.000Z,63.38
2022-08-03T19:31:18.000Z,63.38
2022-08-03T19:33:44.000Z,63.38
2022-08-03T19:33:54.000Z,64.05
2022-08-03T19:34:05.000Z,60.52
2022-08-03T19:34:13.000Z,63.63
2022-08-03T19:36:10.000Z,63.63
2022-08-03T19:38:35.000Z,63.63
2022-08-03T19:38:43.000Z,68.23
2022-08-03T19:38:51.000Z,61.98
2022-08-03T19:41:02.000Z,69.67
2022-08-03T19:43:30.000Z,69.67
2022-08-03T19:46:06.000Z,64.05
2022-08-03T19:46:06.000Z,64.05
2022-08-03T19:46:16.000Z,56.17
2022-08-03T19:48:22.000Z,58.2
2022-08-03T19:50:48.000Z,58.73
2022-08-03T19:53:14.000Z,56.4
2022-08-03T19:55:41.000Z,60.3
2022-08-03T19:58:07.000Z,60.3
2022-08-03T20:00:32.000Z,60.3
2022-08-03T20:00:43.000Z,59.03
2022-08-03T20:00:53.000Z,60.75
2022-08-03T20:02:59.000Z,60.9
2022-08-03T20:05:25.000Z,59.35
2022-08-03T20:07:52.000Z,57.25
2022-08-03T20:10:19.000Z,61.98
2022-08-03T20:12:45.000Z,55.92
2022-08-03T20:15:11.000Z,59.65
2022-08-03T20:17:37.000Z,59.65
2022-08-03T20:20:04.000Z,59.65
2022-08-03T20:20:13.000Z,55.97
2022-08-03T20:20:19.000Z,54.6
2022-08-03T20:22:29.000Z,55.23
2022-08-03T20:24:55.000Z,55.23
2022-08-03T20:25:03.000Z,52.15
2022-08-03T20:27:21.000Z,52.17
2022-08-03T20:29:48.000Z,52.17
2022-08-03T20:32:14.000Z,52.17
2022-08-03T20:32:25.000Z,51.83
2022-08-03T20:32:35.000Z,52.2
2022-08-03T20:34:40.000Z,53.4
2022-08-03T20:37:06.000Z,46.25
2022-08-03T20:39:33.000Z,49
2022-08-03T20:41:58.000Z,49
2022-08-03T20:42:05.000Z,51.02
2022-08-03T20:44:28.000Z,44.1
2022-08-03T20:46:50.000Z,44.1
2022-08-03T20:49:16.000Z,44.1
2022-08-03T20:49:24.000Z,44.27
2022-08-03T20:51:42.000Z,44.27
2022-08-03T20:54:08.000Z,44.27
2022-08-03T20:54:18.000Z,40.15
2022-08-03T20:54:29.000Z,42.38
2022-08-03T20:54:39.000Z,46.05
2022-08-03T20:56:35.000Z,43.9
2022-08-03T20:59:00.000Z,43.9
2022-08-03T21:01:27.000Z,43.9
2022-08-03T21:01:41.000Z,45.1
2022-08-03T21:01:48.000Z,40.98
2022-08-03T21:03:53.000Z,38.88
2022-08-03T21:06:18.000Z,38.88
2022-08-03T21:08:48.000Z,38.88
2022-08-03T21:08:55.000Z,41.7
2022-08-03T21:09:05.000Z,41.7
2022-08-03T21:11:10.000Z,40.98
2022-08-03T21:13:35.000Z,37.88
2022-08-03T21:16:01.000Z,40.33
2022-08-03T21:18:27.000Z,40.33
2022-08-03T21:18:34.000Z,39.53
2022-08-03T21:20:52.000Z,45.28
2022-08-03T21:23:19.000Z,37.65
2022-08-03T21:25:45.000Z,37.65
2022-08-03T21:25:52.000Z,39.07
2022-08-03T21:28:12.000Z,40.85
2022-08-03T21:30:37.000Z,40.85
2022-08-03T21:30:44.000Z,40.47
2022-08-03T21:33:03.000Z,44.77
2022-08-03T21:35:27.000Z,44.85
2022-08-03T21:37:54.000Z,45.2
2022-08-03T21:40:22.000Z,52.1
2022-08-03T21:42:47.000Z,48.7
2022-08-03T21:45:14.000Z,48.58
2022-08-03T21:47:39.000Z,49.65
2022-08-03T21:50:06.000Z,48.4
2022-08-03T21:52:32.000Z,47.7
2022-08-03T21:55:00.000Z,39.6
2022-08-03T21:57:24.000Z,43.75
2022-08-03T21:59:50.000Z,43.28
2022-08-03T22:02:16.000Z,43.67
2022-08-03T22:04:42.000Z,43.67
2022-08-03T22:07:08.000Z,43.67
2022-08-03T22:07:15.000Z,41.75
2022-08-03T22:07:22.000Z,42.5
2022-08-03T22:09:34.000Z,41.8
2022-08-03T22:12:00.000Z,42.3
2022-08-03T22:14:26.000Z,39.63
2022-08-03T22:16:51.000Z,35.77
2022-08-03T22:19:17.000Z,38
2022-08-03T22:21:43.000Z,38.53
2022-08-03T22:24:10.000Z,37.67
2022-08-03T22:29:01.000Z,38.53
2022-08-03T22:31:26.000Z,38.03
2022-08-03T22:33:53.000Z,38.03
2022-08-03T22:34:00.000Z,35.77
2022-08-03T22:36:19.000Z,37.9
2022-08-03T22:38:43.000Z,41.3
2022-08-03T22:41:11.000Z,44.83
2022-08-03T22:43:35.000Z,45.2
2022-08-03T22:46:01.000Z,50.43
2022-08-03T22:48:26.000Z,50.43
2022-08-03T22:48:35.000Z,57.1
2022-08-03T22:50:53.000Z,56.58
2022-08-03T22:53:19.000Z,59.7
2022-08-03T22:55:44.000Z,59.97
2022-08-03T22:58:10.000Z,61.2
2022-08-03T23:00:35.000Z,57.85
2022-08-03T23:03:03.000Z,61.43
2022-08-03T23:05:28.000Z,67.87
2022-08-03T23:07:54.000Z,67.87
2022-08-03T23:08:01.000Z,63.6
2022-08-03T23:10:19.000Z,65.2
2022-08-03T23:12:47.000Z,65.87
2022-08-03T23:15:12.000Z,63.25
2022-08-03T23:17:36.000Z,65
2022-08-03T23:20:04.000Z,65
2022-08-03T23:20:14.000Z,69.27
2022-08-03T23:22:28.000Z,64.87
2022-08-03T23:24:54.000Z,63.35
2022-08-03T23:27:20.000Z,64.22
2022-08-03T23:29:45.000Z,64.6
2022-08-03T23:32:11.000Z,67.35
2022-08-03T23:34:37.000Z,65.08
2022-08-03T23:37:03.000Z,67.17
2022-08-03T23:39:29.000Z,73.97
2022-08-03T23:41:54.000Z,73.97
2022-08-03T23:42:01.000Z,67.53
2022-08-03T23:44:20.000Z,66.43
2022-08-03T23:46:46.000Z,65.03
2022-08-03T23:49:12.000Z,66.07
2022-08-03T23:51:37.000Z,68.33
2022-08-03T23:56:29.000Z,75.15
2022-08-03T23:58:55.000Z,70.87
